Time;durP1;ratioP1;P1;durP2;ratioP2;P2;SDS_P1;SDS_P2;PMS_P1;PMS_P2;Temp;Humidity;BMP_temperature;BMP_pressure;BME280_temperature;BME280_humidity;BME280_pressure;Samples;Min_cycle;Max_cycle;Signal;HPM_P1;HPM_P2
2023/03/28 00:00:03;;;;;;;1.65;0.80;;;20.40;49.80;;;;;;5077718;28;20222;-50
2023/03/28 00:02:34;;;;;;;1.15;0.70;;;20.40;49.80;;;;;;5091101;28;20198;-55
2023/03/28 00:05:06;;;;;;;2.22;1.00;;;20.40;49.80;;;;;;5093217;28;20197;-55
2023/03/28 00:07:37;;;;;;;2.88;0.75;;;20.40;49.80;;;;;;5093656;28;20198;-51
2023/03/28 00:10:08;;;;;;;0.82;0.70;;;20.30;49.70;;;;;;5093802;28;20302;-52
2023/03/28 00:12:41;;;;;;;0.85;0.75;;;20.30;49.70;;;;;;5077036;28;20206;-56
2023/03/28 00:15:12;;;;;;;1.25;0.80;;;20.30;49.70;;;;;;5080504;28;20191;-53
2023/03/28 00:17:43;;;;;;;0.90;0.70;;;20.30;49.70;;;;;;5088420;28;20194;-55
2023/03/28 00:20:14;;;;;;;1.65;0.82;;;20.30;49.70;;;;;;5073674;28;20215;-53
2023/03/28 00:22:45;;;;;;;1.13;0.80;;;20.30;49.70;;;;;;5072789;28;20244;-57
2023/03/28 00:25:17;;;;;;;0.73;0.70;;;20.30;49.70;;;;;;5072863;28;20202;-53
2023/03/28 00:27:49;;;;;;;1.02;0.82;;;20.30;49.60;;;;;;5089551;28;20190;-50
2023/03/28 00:30:20;;;;;;;0.95;0.60;;;20.20;49.60;;;;;;5071830;28;20199;-55
2023/03/28 00:32:50;;;;;;;1.52;0.93;;;20.20;49.60;;;;;;5073283;28;20208;-52
2023/03/28 00:35:21;;;;;;;0.47;0.47;;;20.20;49.60;;;;;;5093656;28;20635;-53
2023/03/28 00:37:57;;;;;;;1.67;0.80;;;20.20;49.60;;;;;;5093719;28;20198;-54
2023/03/28 00:40:29;;;;;;;1.15;0.70;;;20.20;49.60;;;;;;5073238;28;20222;-53
2023/03/28 00:43:02;;;;;;;0.70;0.60;;;20.10;49.50;;;;;;5073965;28;20281;-54
2023/03/28 00:45:32;;;;;;;0.68;0.60;;;20.10;49.50;;;;;;5093353;28;20205;-54
2023/03/28 00:48:08;;;;;;;1.35;0.90;;;20.10;49.50;;;;;;5093643;28;20192;-53
2023/03/28 00:50:41;;;;;;;0.90;0.60;;;20.10;49.50;;;;;;5112978;28;20677;-51
2023/03/28 00:53:14;;;;;;;1.13;0.63;;;20.10;49.50;;;;;;5113595;28;20193;-56
2023/03/28 00:55:48;;;;;;;0.80;0.60;;;20.00;49.40;;;;;;5113425;28;20201;-57
2023/03/28 00:58:24;;;;;;;0.95;0.60;;;20.00;49.40;;;;;;5075117;28;20264;-53
2023/03/28 01:00:55;;;;;;;0.77;0.63;;;20.00;49.50;;;;;;5093299;28;20579;-56
2023/03/28 01:03:32;;;;;;;0.55;0.50;;;20.00;49.40;;;;;;5092386;28;20190;-53
2023/03/28 01:06:06;;;;;;;0.75;0.52;;;20.00;49.40;;;;;;5092793;28;20193;-56
2023/03/28 01:08:40;;;;;;;0.93;0.63;;;20.00;49.50;;;;;;5093555;28;20210;-51
2023/03/28 01:11:11;;;;;;;0.80;0.60;;;19.90;49.40;;;;;;5093002;28;20676;-52
2023/03/28 01:13:46;;;;;;;0.70;0.50;;;19.90;49.40;;;;;;5092247;28;20190;-50
2023/03/28 01:16:18;;;;;;;0.80;0.60;;;19.90;49.40;;;;;;5091596;28;20220;-50
2023/03/28 01:18:51;;;;;;;1.30;0.70;;;19.90;49.40;;;;;;5092705;28;20232;-54
2023/03/28 01:21:56;;;;;;;0.75;0.60;;;19.90;49.30;;;;;;5092090;28;20221;-54
2023/03/28 01:24:53;;;;;;;0.77;0.70;;;19.90;49.30;;;;;;5091500;28;20194;-51
2023/03/28 01:27:32;;;;;;;1.23;0.77;;;19.90;49.30;;;;;;5077788;28;20662;-54
2023/03/28 01:30:52;;;;;;;0.80;0.70;;;19.90;49.30;;;;;;5087810;28;20555;-55
2023/03/28 01:33:55;;;;;;;0.75;0.63;;;19.80;49.30;;;;;;5079090;28;20216;-56
2023/03/28 01:37:02;;;;;;;0.60;0.50;;;19.80;49.20;;;;;;5079849;28;20198;-53
2023/03/28 01:39:44;;;;;;;0.60;0.50;;;19.80;49.20;;;;;;5091711;28;20589;-50
2023/03/28 01:42:23;;;;;;;1.33;0.70;;;19.80;49.20;;;;;;5092344;28;20229;-51
2023/03/28 01:45:06;;;;;;;1.63;0.60;;;19.80;49.20;;;;;;5090685;28;20194;-54
2023/03/28 01:47:41;;;;;;;1.42;0.82;;;19.80;49.20;;;;;;5092163;28;20230;-54
2023/03/28 01:50:19;;;;;;;1.55;0.80;;;19.70;49.20;;;;;;5103527;28;20216;-54
2023/03/28 01:52:59;;;;;;;1.05;0.80;;;19.70;49.20;;;;;;5113247;28;20193;-54
2023/03/28 01:55:36;;;;;;;1.45;0.73;;;19.70;49.10;;;;;;5111386;28;20225;-53
2023/03/28 01:58:13;;;;;;;1.95;0.80;;;19.70;49.10;;;;;;5071821;28;20210;-52
2023/03/28 02:00:46;;;;;;;1.00;0.65;;;19.70;49.20;;;;;;5091295;28;20220;-53
2023/03/28 02:03:20;;;;;;;0.95;0.60;;;19.70;49.10;;;;;;5092195;28;20198;-57
2023/03/28 02:05:54;;;;;;;0.82;0.70;;;19.70;49.10;;;;;;5111936;28;20193;-57
2023/03/28 02:08:31;;;;;;;1.23;0.60;;;19.60;49.00;;;;;;5096647;28;20214;-55
2023/03/28 02:11:02;;;;;;;0.73;0.70;;;19.60;49.00;;;;;;5070972;28;20713;-54
2023/03/28 02:13:38;;;;;;;0.80;0.60;;;19.60;49.00;;;;;;5072245;28;20203;-54
2023/03/28 02:16:11;;;;;;;1.25;0.70;;;19.60;49.00;;;;;;5089664;28;20194;-54
2023/03/28 02:18:47;;;;;;;1.77;0.60;;;19.60;49.00;;;;;;5072849;28;20729;-54
2023/03/28 02:21:22;;;;;;;1.20;0.70;;;19.60;49.00;;;;;;5090356;28;20228;-56
2023/03/28 02:23:56;;;;;;;0.82;0.70;;;19.60;48.90;;;;;;5090809;28;20190;-54
2023/03/28 02:26:28;;;;;;;0.47;0.47;;;19.60;49.00;;;;;;5085676;28;20203;-54
2023/03/28 02:29:01;;;;;;;0.77;0.52;;;19.50;48.90;;;;;;5073985;28;20210;-51
2023/03/28 02:31:32;;;;;;;2.17;0.65;;;19.50;48.90;;;;;;5090697;28;20198;-51
2023/03/28 02:34:03;;;;;;;1.67;0.70;;;19.50;48.90;;;;;;5092044;28;20228;-54
2023/03/28 02:36:53;;;;;;;0.80;0.52;;;19.50;48.90;;;;;;5091227;28;20205;-52
2023/03/28 02:39:50;;;;;;;0.70;0.60;;;19.50;48.90;;;;;;5091547;28;20924;-51
2023/03/28 02:42:52;;;;;;;0.63;0.60;;;19.50;48.80;;;;;;5089420;28;20225;-54
2023/03/28 02:45:44;;;;;;;1.45;0.82;;;19.50;48.80;;;;;;5088930;28;20190;-51
2023/03/28 02:48:27;;;;;;;1.33;0.70;;;19.40;48.70;;;;;;5088180;28;20636;-52
2023/03/28 02:51:10;;;;;;;0.73;0.63;;;19.40;48.70;;;;;;5088528;28;20650;-52
2023/03/28 02:53:51;;;;;;;1.27;0.80;;;19.40;48.70;;;;;;5091890;28;20194;-51
2023/03/28 02:56:30;;;;;;;0.80;0.60;;;19.40;48.70;;;;;;5070658;28;20205;-50
2023/03/28 02:59:08;;;;;;;1.10;0.57;;;19.40;48.80;;;;;;5072044;28;20617;-55
2023/03/28 03:01:39;;;;;;;1.02;0.80;;;19.40;48.80;;;;;;5091052;28;20691;-51
2023/03/28 03:04:10;;;;;;;1.00;0.75;;;19.30;48.80;;;;;;5090590;28;20193;-54
2023/03/28 03:06:41;;;;;;;0.60;0.60;;;19.30;48.80;;;;;;5090728;28;20197;-50
2023/03/28 03:09:11;;;;;;;0.70;0.43;;;19.30;48.80;;;;;;5084864;28;20223;-56
2023/03/28 03:11:44;;;;;;;1.35;0.70;;;19.30;48.80;;;;;;5089926;28;20194;-52
2023/03/28 03:14:15;;;;;;;0.70;0.70;;;19.30;48.80;;;;;;5090166;28;20193;-56
2023/03/28 03:16:45;;;;;;;1.23;0.70;;;19.30;48.80;;;;;;5089348;28;20198;-53
2023/03/28 03:19:16;;;;;;;1.27;0.70;;;19.20;48.70;;;;;;5092031;28;20217;-54
2023/03/28 03:21:48;;;;;;;0.60;0.60;;;19.20;48.70;;;;;;5110836;28;20227;-55
2023/03/28 03:24:19;;;;;;;0.80;0.60;;;19.20;48.70;;;;;;5110330;28;20197;-53
2023/03/28 03:26:52;;;;;;;1.10;0.52;;;19.20;49.30;;;;;;5092646;28;20273;-57
2023/03/28 03:29:23;;;;;;;0.65;0.55;;;19.20;48.70;;;;;;5073427;28;20289;-54
2023/03/28 03:31:53;;;;;;;0.60;0.60;;;19.20;48.70;;;;;;5090971;28;20194;-56
2023/03/28 03:34:25;;;;;;;0.70;0.55;;;19.20;48.60;;;;;;5090253;28;20194;-55
2023/03/28 03:36:55;;;;;;;1.05;0.70;;;19.20;48.70;;;;;;5090049;28;20222;-55
2023/03/28 03:39:26;;;;;;;1.27;0.65;;;19.20;48.70;;;;;;5079224;28;20210;-55
2023/03/28 03:41:59;;;;;;;0.90;0.80;;;19.10;48.70;;;;;;5093820;28;20224;-54
2023/03/28 03:44:29;;;;;;;0.60;0.50;;;19.10;48.70;;;;;;5094480;28;20191;-55
2023/03/28 03:47:00;;;;;;;0.63;0.60;;;19.10;48.70;;;;;;5094584;28;20194;-55
2023/03/28 03:49:31;;;;;;;1.20;0.70;;;19.10;48.70;;;;;;5086285;28;20211;-52
2023/03/28 03:52:02;;;;;;;0.60;0.60;;;19.10;48.70;;;;;;5114061;28;20266;-54
2023/03/28 03:54:32;;;;;;;0.80;0.75;;;19.10;48.70;;;;;;5113891;28;20239;-53
2023/03/28 03:57:05;;;;;;;1.10;0.80;;;19.10;48.70;;;;;;5089540;28;20198;-51
2023/03/28 03:59:35;;;;;;;1.02;0.80;;;19.10;48.60;;;;;;5077095;28;20229;-54
2023/03/28 04:02:06;;;;;;;0.70;0.70;;;19.00;48.60;;;;;;5093404;28;20221;-53
2023/03/28 04:04:39;;;;;;;1.30;0.70;;;19.00;48.60;;;;;;5093031;28;20186;-55
2023/03/28 04:07:09;;;;;;;0.88;0.70;;;19.00;48.50;;;;;;5093389;28;20231;-54
2023/03/28 04:09:40;;;;;;;1.48;0.90;;;19.00;48.60;;;;;;5091359;28;20214;-52
2023/03/28 04:12:16;;;;;;;1.35;0.90;;;19.00;48.60;;;;;;5093734;28;20680;-52
2023/03/28 04:14:46;;;;;;;0.80;0.80;;;19.00;48.60;;;;;;5080958;28;20190;-53
2023/03/28 04:17:20;;;;;;;0.80;0.80;;;19.00;48.70;;;;;;5093969;28;20187;-50
2023/03/28 04:19:50;;;;;;;0.82;0.80;;;18.90;48.60;;;;;;5093566;28;20297;-54
2023/03/28 04:22:21;;;;;;;1.40;0.93;;;18.90;48.60;;;;;;5093175;28;20233;-55
2023/03/28 04:24:52;;;;;;;1.67;0.95;;;18.90;48.60;;;;;;5085717;28;20732;-53
2023/03/28 04:27:25;;;;;;;1.33;0.90;;;18.90;48.60;;;;;;5086886;28;20190;-56
2023/03/28 04:29:56;;;;;;;0.95;0.80;;;18.90;48.60;;;;;;5091859;28;20297;-57
2023/03/28 04:32:26;;;;;;;1.58;1.30;;;18.90;48.70;;;;;;5091268;28;20653;-54
2023/03/28 04:34:59;;;;;;;1.77;1.30;;;18.90;48.60;;;;;;5093806;28;20228;-54
2023/03/28 04:37:30;;;;;;;1.48;1.10;;;18.90;48.70;;;;;;5093448;28;20198;-54
2023/03/28 04:40:01;;;;;;;2.80;1.10;;;18.90;48.80;;;;;;5085940;28;20225;-56
2023/03/28 04:42:35;;;;;;;1.98;1.00;;;18.90;48.90;;;;;;5083820;28;20254;-55
2023/03/28 04:45:07;;;;;;;2.85;1.35;;;18.90;48.90;;;;;;5077677;28;20190;-56
2023/03/28 04:47:38;;;;;;;2.35;0.80;;;18.90;48.90;;;;;;5090970;28;20680;-54
2023/03/28 04:50:11;;;;;;;1.40;1.10;;;18.90;49.00;;;;;;5079523;28;20749;-50
2023/03/28 04:52:42;;;;;;;1.83;1.27;;;18.90;49.00;;;;;;5093653;28;20202;-54
2023/03/28 04:55:14;;;;;;;2.22;1.23;;;18.90;49.10;;;;;;5093455;28;20197;-53
2023/03/28 04:57:47;;;;;;;1.42;1.00;;;18.80;49.00;;;;;;5076483;28;20632;-55
2023/03/28 05:00:18;;;;;;;1.63;1.23;;;18.80;49.10;;;;;;5078257;28;20216;-51
2023/03/28 05:02:49;;;;;;;1.20;1.10;;;18.80;49.20;;;;;;5093367;28;20697;-54
2023/03/28 05:05:20;;;;;;;1.30;1.20;;;18.80;49.20;;;;;;5088634;28;20190;-54
2023/03/28 05:07:50;;;;;;;1.63;1.15;;;18.80;49.20;;;;;;5091778;28;20190;-52
2023/03/28 05:10:21;;;;;;;1.25;0.90;;;18.80;49.20;;;;;;5098514;28;20189;-55
2023/03/28 05:12:54;;;;;;;1.33;0.90;;;18.80;49.20;;;;;;5070914;28;20203;-56
2023/03/28 05:15:24;;;;;;;3.15;1.40;;;18.80;49.30;;;;;;5082427;28;20197;-56
2023/03/28 05:17:55;;;;;;;1.63;0.98;;;18.80;49.30;;;;;;5073550;28;20202;-55
2023/03/28 05:20:26;;;;;;;1.98;1.40;;;18.80;49.30;;;;;;5085522;28;20186;-52
2023/03/28 05:22:56;;;;;;;1.67;1.17;;;18.80;49.30;;;;;;5088470;28;20222;-51
2023/03/28 05:25:27;;;;;;;1.50;1.17;;;18.80;49.30;;;;;;5093057;28;20201;-55
2023/03/28 05:28:00;;;;;;;2.80;0.93;;;18.70;49.30;;;;;;5074107;28;20209;-54
2023/03/28 05:30:30;;;;;;;1.67;1.30;;;18.80;49.30;;;;;;5078645;28;20193;-55
2023/03/28 05:33:01;;;;;;;1.42;1.20;;;18.70;49.30;;;;;;5092909;28;20588;-57
2023/03/28 05:35:32;;;;;;;3.28;1.33;;;18.70;49.30;;;;;;5092552;28;20189;-53
2023/03/28 05:38:03;;;;;;;1.60;1.20;;;18.70;49.30;;;;;;5092686;28;20210;-57
2023/03/28 05:40:33;;;;;;;3.00;1.27;;;18.70;49.30;;;;;;5092992;28;20182;-56
2023/03/28 05:43:06;;;;;;;1.42;1.20;;;18.70;49.30;;;;;;5092710;28;20222;-56
2023/03/28 05:45:37;;;;;;;1.58;1.30;;;18.70;49.40;;;;;;5092557;28;20197;-53
2023/03/28 05:48:07;;;;;;;1.23;1.13;;;18.70;49.40;;;;;;5090602;28;20525;-52
2023/03/28 05:50:38;;;;;;;2.17;1.25;;;18.70;49.40;;;;;;5083430;28;20193;-54
2023/03/28 05:53:09;;;;;;;2.13;1.33;;;18.70;49.30;;;;;;5112979;28;20202;-51
2023/03/28 05:55:39;;;;;;;1.20;1.10;;;18.70;49.40;;;;;;5112113;28;20190;-53
2023/03/28 05:58:12;;;;;;;1.58;1.20;;;18.70;50.00;;;;;;5072084;28;20574;-51
2023/03/28 06:00:43;;;;;;;1.80;1.17;;;18.70;49.40;;;;;;5077181;28;20197;-55
2023/03/28 06:03:16;;;;;;;2.15;1.38;;;18.60;49.30;;;;;;5091723;28;20274;-52
2023/03/28 06:05:46;;;;;;;2.35;1.10;;;18.60;49.40;;;;;;5091352;28;20183;-55
2023/03/28 06:08:17;;;;;;;2.97;1.40;;;18.60;49.30;;;;;;5091334;28;20225;-51
2023/03/28 06:10:48;;;;;;;2.10;1.45;;;18.60;49.40;;;;;;5091692;28;20585;-56
2023/03/28 06:13:20;;;;;;;1.50;1.40;;;18.60;49.40;;;;;;5077967;28;20194;-54
2023/03/28 06:15:51;;;;;;;2.45;1.38;;;18.60;49.40;;;;;;5092418;28;20202;-54
2023/03/28 06:18:21;;;;;;;1.48;1.20;;;18.60;49.40;;;;;;5088106;28;20233;-53
2023/03/28 06:20:52;;;;;;;1.67;1.27;;;18.60;49.40;;;;;;5090385;28;20194;-55
2023/03/28 06:23:23;;;;;;;1.40;1.30;;;18.60;49.40;;;;;;5092021;28;20297;-55
2023/03/28 06:25:54;;;;;;;1.50;1.33;;;18.60;49.40;;;;;;5090680;28;20190;-53
2023/03/28 06:28:26;;;;;;;1.20;1.10;;;18.60;49.40;;;;;;5071694;28;20214;-55
2023/03/28 06:30:57;;;;;;;1.77;1.27;;;18.60;49.40;;;;;;5073798;28;20198;-55
2023/03/28 06:33:27;;;;;;;1.73;1.20;;;18.60;49.40;;;;;;5082496;28;20194;-56
2023/03/28 06:35:58;;;;;;;1.77;1.13;;;18.50;49.40;;;;;;5090498;28;20195;-54
2023/03/28 06:38:29;;;;;;;1.23;1.10;;;18.50;49.40;;;;;;5091268;28;20225;-53
2023/03/28 06:40:59;;;;;;;1.90;1.30;;;18.50;49.40;;;;;;5091169;28;20202;-53
2023/03/28 06:43:32;;;;;;;2.15;1.10;;;18.50;49.40;;;;;;5091388;28;20225;-55
2023/03/28 06:46:03;;;;;;;1.65;1.40;;;18.50;49.40;;;;;;5091650;28;20197;-53
2023/03/28 06:48:33;;;;;;;1.70;1.33;;;18.50;49.40;;;;;;5091556;28;20773;-55
2023/03/28 06:51:04;;;;;;;1.98;1.25;;;18.50;49.40;;;;;;5091664;28;20564;-50
2023/03/28 06:53:35;;;;;;;2.58;1.45;;;18.50;49.40;;;;;;5092065;28;20198;-49
2023/03/28 06:56:06;;;;;;;2.28;1.50;;;18.40;49.40;;;;;;5088323;28;20238;-50
2023/03/28 06:58:38;;;;;;;1.48;1.20;;;18.40;49.30;;;;;;5071126;28;20226;-49
2023/03/28 07:01:09;;;;;;;1.70;1.10;;;18.40;49.40;;;;;;5070804;28;20207;-51
2023/03/28 07:03:40;;;;;;;1.85;1.65;;;18.40;49.40;;;;;;5070896;28;20226;-50
2023/03/28 07:06:12;;;;;;;2.38;1.40;;;18.40;49.40;;;;;;5070957;28;20201;-54
2023/03/28 07:08:42;;;;;;;1.95;1.40;;;18.40;49.40;;;;;;5086214;28;20221;-53
2023/03/28 07:11:13;;;;;;;1.70;1.50;;;18.40;49.40;;;;;;5091301;28;20209;-51
2023/03/28 07:13:46;;;;;;;1.73;1.20;;;18.40;49.40;;;;;;5094690;28;20202;-54
2023/03/28 07:16:17;;;;;;;1.55;1.30;;;18.40;49.40;;;;;;5095546;28;20201;-51
2023/03/28 07:18:48;;;;;;;3.20;1.27;;;18.40;49.40;;;;;;5088538;28;20561;-53
2023/03/28 07:21:20;;;;;;;2.25;1.45;;;18.40;49.40;;;;;;5095152;28;20198;-53
2023/03/28 07:23:51;;;;;;;1.38;1.27;;;18.30;49.40;;;;;;5094992;28;20232;-52
2023/03/28 07:26:21;;;;;;;2.60;1.25;;;18.30;49.40;;;;;;5089962;28;20214;-54
2023/03/28 07:28:56;;;;;;;1.42;1.27;;;18.30;49.40;;;;;;5074319;28;20237;-53
2023/03/28 07:31:26;;;;;;;1.25;1.00;;;18.30;49.40;;;;;;5074441;28;20194;-56
2023/03/28 07:33:58;;;;;;;1.45;1.20;;;18.30;49.30;;;;;;5074398;28;20194;-56
2023/03/28 07:36:30;;;;;;;1.85;1.15;;;18.30;49.30;;;;;;5074617;28;20195;-54
2023/03/28 07:39:00;;;;;;;1.55;1.38;;;18.30;49.40;;;;;;5074485;28;20214;-54
2023/03/28 07:41:31;;;;;;;2.25;1.17;;;18.30;49.40;;;;;;5074047;28;20201;-53
2023/03/28 07:44:04;;;;;;;1.98;1.05;;;18.20;49.30;;;;;;5074332;28;20682;-52
2023/03/28 07:46:36;;;;;;;1.60;1.20;;;18.20;49.30;;;;;;5074732;28;20195;-56
2023/03/28 07:49:07;;;;;;;1.83;1.30;;;18.20;49.30;;;;;;5073949;28;20215;-54
2023/03/28 07:51:38;;;;;;;2.60;1.30;;;18.20;49.30;;;;;;5073788;28;20201;-53
2023/03/28 07:54:16;;;;;;;1.23;1.10;;;18.20;49.30;;;;;;5074739;28;20571;-50
2023/03/28 07:56:47;;;;;;;1.42;1.23;;;18.20;49.30;;;;;;5074502;28;20199;-54
2023/03/28 07:59:20;;;;;;;1.90;1.23;;;18.20;49.30;;;;;;5074096;28;20227;-52
2023/03/28 08:01:50;;;;;;;2.08;1.27;;;18.20;49.30;;;;;;5074241;28;20202;-53
2023/03/28 08:04:21;;;;;;;1.40;1.17;;;18.20;49.30;;;;;;5073841;28;20728;-52
2023/03/28 08:06:52;;;;;;;1.83;1.15;;;18.10;49.30;;;;;;5074318;28;20256;-55
2023/03/28 08:09:23;;;;;;;1.15;1.05;;;18.10;49.30;;;;;;5074354;28;20615;-56
2023/03/28 08:11:54;;;;;;;1.88;1.15;;;18.10;49.30;;;;;;5074244;28;20212;-54
2023/03/28 08:14:26;;;;;;;1.08;0.90;;;18.10;49.20;;;;;;5073881;28;20190;-56
2023/03/28 08:16:57;;;;;;;1.45;1.02;;;18.10;49.30;;;;;;5073160;28;20197;-55
2023/03/28 08:19:27;;;;;;;2.53;1.20;;;18.10;49.30;;;;;;5074869;28;20215;-55
2023/03/28 08:22:01;;;;;;;2.22;1.20;;;18.10;49.30;;;;;;5083762;28;20194;-53
2023/03/28 08:24:31;;;;;;;2.47;1.30;;;18.10;49.30;;;;;;5088085;28;20273;-53
2023/03/28 08:27:02;;;;;;;1.10;1.00;;;18.10;49.30;;;;;;5093628;28;20194;-53
2023/03/28 08:29:35;;;;;;;1.75;1.30;;;18.10;49.30;;;;;;5089444;28;20210;-56
2023/03/28 08:32:06;;;;;;;1.75;0.88;;;18.10;49.40;;;;;;5094281;28;20201;-55
2023/03/28 08:34:37;;;;;;;2.05;1.40;;;18.10;49.40;;;;;;5091894;28;20314;-57
2023/03/28 08:37:07;;;;;;;3.90;1.63;;;18.00;49.70;;;;;;5087951;28;20197;-54
2023/03/28 08:39:40;;;;;;;6.45;2.40;;;18.10;50.30;;;;;;5079449;28;20700;-55
2023/03/28 08:42:44;;;;;;;4.45;1.60;;;18.10;50.40;;;;;;5093388;28;20193;-56
2023/03/28 08:45:26;;;;;;;4.78;1.50;;;18.10;50.50;;;;;;5083753;28;20185;-52
2023/03/28 08:48:07;;;;;;;4.20;1.67;;;18.10;50.50;;;;;;5093838;28;20205;-51
2023/03/28 08:50:41;;;;;;;2.15;1.25;;;18.10;50.50;;;;;;5080815;28;20203;-56
2023/03/28 08:53:21;;;;;;;4.57;1.30;;;18.10;50.50;;;;;;5073756;28;20203;-53
2023/03/28 08:55:53;;;;;;;5.07;1.73;;;18.10;50.50;;;;;;5087698;28;20237;-55
2023/03/28 08:58:26;;;;;;;5.70;1.80;;;18.10;50.50;;;;;;5073425;28;20296;-54
2023/03/28 09:00:59;;;;;;;3.15;1.40;;;18.10;50.50;;;;;;5089042;28;20195;-54
2023/03/28 09:03:30;;;;;;;3.72;1.48;;;18.10;50.50;;;;;;5092996;28;20236;-54
2023/03/28 09:06:10;;;;;;;3.90;1.10;;;18.00;50.40;;;;;;5093092;28;20190;-56
2023/03/28 09:08:57;;;;;;;4.90;1.55;;;18.00;50.40;;;;;;5092862;28;20298;-54
2023/03/28 09:11:39;;;;;;;3.20;1.38;;;18.00;50.40;;;;;;5093415;28;20237;-53
2023/03/28 09:14:31;;;;;;;3.35;1.27;;;18.00;51.00;;;;;;5089623;28;20202;-56
2023/03/28 09:17:11;;;;;;;3.65;1.10;;;18.00;50.30;;;;;;5072730;28;20206;-57
2023/03/28 09:19:53;;;;;;;3.35;1.55;;;18.00;50.40;;;;;;5083447;28;20205;-55
2023/03/28 09:22:34;;;;;;;3.33;1.42;;;18.00;50.30;;;;;;5112872;28;20555;-51
2023/03/28 09:25:27;;;;;;;4.68;1.20;;;18.00;50.30;;;;;;5112817;27;20186;-52
2023/03/28 09:28:01;;;;;;;2.67;1.02;;;18.00;50.30;;;;;;5075331;28;20293;-56
2023/03/28 09:30:35;;;;;;;2.47;1.10;;;17.90;50.20;;;;;;5083308;28;20220;-53
2023/03/28 09:33:13;;;;;;;2.63;1.30;;;17.90;50.20;;;;;;5092761;28;20209;-54
2023/03/28 09:35:45;;;;;;;3.85;1.50;;;17.90;50.20;;;;;;5092266;28;20190;-51
2023/03/28 09:38:22;;;;;;;3.53;1.33;;;17.90;50.10;;;;;;5092382;28;20214;-54
2023/03/28 09:40:56;;;;;;;5.15;1.27;;;17.90;50.20;;;;;;5092585;28;20190;-53
2023/03/28 09:43:35;;;;;;;2.25;1.20;;;17.90;50.20;;;;;;5082461;28;20210;-52
2023/03/28 09:46:08;;;;;;;3.05;1.25;;;17.90;50.20;;;;;;5082401;28;20658;-54
2023/03/28 09:48:41;;;;;;;2.15;1.10;;;17.90;50.20;;;;;;5081638;28;20210;-55
2023/03/28 09:51:18;;;;;;;3.17;1.25;;;17.90;50.20;;;;;;5080892;28;20195;-54
2023/03/28 09:53:49;;;;;;;2.72;1.17;;;17.90;50.20;;;;;;5080566;28;20187;-54
2023/03/28 09:56:27;;;;;;;2.33;1.27;;;17.80;50.20;;;;;;5077767;28;20199;-56
2023/03/28 09:58:58;;;;;;;2.53;1.27;;;17.80;50.10;;;;;;5080874;28;20206;-55
2023/03/28 10:01:37;;;;;;;3.40;1.27;;;17.80;50.10;;;;;;5080047;28;20557;-52
2023/03/28 10:04:15;;;;;;;2.95;1.40;;;17.80;50.10;;;;;;5080241;28;20217;-54
2023/03/28 10:06:47;;;;;;;2.80;1.23;;;17.80;50.00;;;;;;5080027;28;20183;-56
2023/03/28 10:09:22;;;;;;;1.52;0.95;;;17.80;50.00;;;;;;5080825;28;20903;-53
2023/03/28 10:11:55;;;;;;;1.70;1.33;;;17.80;50.00;;;;;;5089478;28;20201;-53
2023/03/28 10:14:33;;;;;;;2.05;1.30;;;17.80;50.00;;;;;;5091942;28;20202;-53
2023/03/28 10:17:06;;;;;;;1.88;1.25;;;17.80;50.00;;;;;;5092160;28;20198;-57
2023/03/28 10:19:42;;;;;;;2.00;1.05;;;17.80;50.00;;;;;;5084543;28;20206;-52
2023/03/28 10:22:16;;;;;;;1.73;1.05;;;17.80;50.00;;;;;;5091257;28;20205;-58
2023/03/28 10:24:49;;;;;;;2.03;1.10;;;17.70;50.00;;;;;;5087648;28;20704;-54
2023/03/28 10:27:23;;;;;;;2.92;1.13;;;17.70;49.90;;;;;;5088342;28;20194;-56
2023/03/28 10:29:55;;;;;;;1.38;1.10;;;17.70;49.90;;;;;;5082543;28;20212;-57
2023/03/28 10:32:30;;;;;;;2.63;1.17;;;17.70;49.90;;;;;;5091847;28;20190;-55
2023/03/28 10:35:11;;;;;;;2.08;0.98;;;17.70;50.00;;;;;;5091751;28;20205;-56
2023/03/28 10:37:47;;;;;;;2.45;1.10;;;17.70;50.00;;;;;;5091946;28;20664;-55
2023/03/28 10:40:29;;;;;;;1.17;0.88;;;17.60;49.80;;;;;;5091937;28;20201;-57
2023/03/28 10:43:00;;;;;;;1.85;1.38;;;17.60;49.90;;;;;;5091904;28;20198;-55
2023/03/28 10:45:36;;;;;;;1.95;1.00;;;17.60;49.80;;;;;;5091528;28;20665;-56
2023/03/28 10:48:13;;;;;;;1.52;1.00;;;17.60;49.80;;;;;;5090673;28;20197;-54
2023/03/28 10:50:48;;;;;;;2.13;1.08;;;17.60;49.80;;;;;;5091687;28;20814;-54
2023/03/28 10:53:57;;;;;;;2.25;1.20;;;17.60;49.80;;;;;;5092323;28;20664;-54
2023/03/28 10:56:33;;;;;;;1.60;1.10;;;17.60;49.80;;;;;;5038537;28;20655;-52
2023/03/28 10:59:22;;;;;;;2.03;1.02;;;17.60;49.80;;;;;;5090706;28;20710;-54
2023/03/28 11:02:06;;;;;;;1.65;1.02;;;17.60;49.70;;;;;;5091124;28;20234;-54
2023/03/28 11:05:01;;;;;;;2.22;1.27;;;17.60;49.70;;;;;;5091188;28;20229;-54
2023/03/28 11:07:39;;;;;;;2.17;1.27;;;17.50;49.70;;;;;;5079986;28;20197;-55
2023/03/28 11:10:17;;;;;;;1.15;0.90;;;17.50;49.70;;;;;;5082530;28;20237;-53
2023/03/28 11:12:59;;;;;;;2.00;1.10;;;17.50;49.70;;;;;;5084837;28;20190;-57
2023/03/28 11:15:35;;;;;;;1.30;1.10;;;17.50;49.60;;;;;;5091191;28;20194;-56
2023/03/28 11:18:21;;;;;;;1.70;1.30;;;17.50;49.70;;;;;;5091210;28;21002;-54
2023/03/28 11:21:02;;;;;;;2.72;1.17;;;17.50;49.70;;;;;;5082035;28;20213;-53
2023/03/28 11:23:47;;;;;;;1.45;1.10;;;17.50;49.60;;;;;;5082311;28;20225;-58
2023/03/28 11:26:22;;;;;;;1.90;1.10;;;17.40;49.60;;;;;;5086674;28;20206;-52
2023/03/28 11:29:10;;;;;;;3.10;1.40;;;17.40;49.60;;;;;;5071354;28;20237;-54
2023/03/28 11:31:47;;;;;;;1.55;1.10;;;17.40;49.60;;;;;;5071257;28;20252;-57
2023/03/28 11:34:26;;;;;;;1.70;0.95;;;17.40;49.60;;;;;;5071263;28;20191;-54
2023/03/28 11:37:00;;;;;;;2.28;1.20;;;17.40;49.60;;;;;;5070853;28;20202;-57
2023/03/28 11:39:41;;;;;;;1.40;1.10;;;17.40;49.60;;;;;;5070796;28;20218;-54
2023/03/28 11:42:19;;;;;;;3.08;1.42;;;17.40;49.70;;;;;;5071125;28;20199;-54
2023/03/28 11:44:57;;;;;;;2.45;1.20;;;17.40;49.50;;;;;;5071266;28;20309;-54
2023/03/28 11:47:32;;;;;;;1.90;1.05;;;17.30;49.50;;;;;;5070875;28;20191;-56
2023/03/28 11:50:13;;;;;;;1.75;1.13;;;17.40;49.50;;;;;;5070526;28;20214;-57
2023/03/28 11:52:53;;;;;;;2.15;1.17;;;17.30;49.50;;;;;;5070806;28;20194;-57
2023/03/28 11:55:28;;;;;;;2.80;1.20;;;17.30;49.50;;;;;;5071033;28;20198;-57
2023/03/28 11:58:03;;;;;;;2.13;1.27;;;17.30;49.50;;;;;;5071309;28;20202;-53
2023/03/28 12:00:40;;;;;;;1.73;1.10;;;17.30;49.50;;;;;;5074908;28;20225;-54
2023/03/28 12:03:16;;;;;;;1.50;1.17;;;17.30;49.50;;;;;;5074572;28;20232;-55
2023/03/28 12:05:51;;;;;;;2.20;1.20;;;17.30;49.50;;;;;;5074119;28;20202;-55
2023/03/28 12:08:27;;;;;;;2.10;1.05;;;17.30;49.50;;;;;;5074158;28;20217;-56
2023/03/28 12:11:04;;;;;;;1.45;0.95;;;17.30;49.50;;;;;;5074368;28;20190;-55
2023/03/28 12:13:41;;;;;;;1.42;1.05;;;17.20;49.50;;;;;;5074227;28;20203;-54
2023/03/28 12:16:14;;;;;;;2.03;1.10;;;17.20;49.50;;;;;;5074477;28;20194;-52
2023/03/28 12:18:48;;;;;;;1.17;0.80;;;17.20;49.50;;;;;;5074322;28;20221;-53
2023/03/28 12:21:26;;;;;;;2.38;1.25;;;17.20;49.50;;;;;;5088684;28;20212;-52
2023/03/28 12:24:04;;;;;;;1.25;0.90;;;17.20;49.50;;;;;;5079941;28;20215;-52
2023/03/28 12:26:47;;;;;;;1.50;1.02;;;17.20;49.50;;;;;;5081027;28;20233;-53
2023/03/28 12:29:24;;;;;;;2.20;0.98;;;17.20;49.50;;;;;;5093500;28;20257;-55
2023/03/28 12:32:01;;;;;;;1.42;0.80;;;17.20;49.50;;;;;;5093641;28;20281;-55
2023/03/28 12:34:38;;;;;;;1.70;1.00;;;17.20;49.50;;;;;;5093597;28;20198;-56
2023/03/28 12:37:16;;;;;;;2.85;1.05;;;17.20;49.50;;;;;;5090637;28;20198;-57
2023/03/28 12:39:52;;;;;;;1.05;0.80;;;17.10;49.40;;;;;;5093417;28;20256;-57
2023/03/28 12:42:27;;;;;;;2.03;1.10;;;17.10;49.40;;;;;;5093514;28;20573;-55
2023/03/28 12:45:01;;;;;;;1.17;0.75;;;17.10;49.40;;;;;;5093812;28;20253;-55
2023/03/28 12:47:36;;;;;;;1.75;1.08;;;17.10;49.40;;;;;;5093778;28;20204;-55
2023/03/28 12:50:11;;;;;;;1.00;0.88;;;17.10;49.40;;;;;;5093474;28;20596;-56
2023/03/28 12:52:45;;;;;;;1.95;1.02;;;17.10;49.40;;;;;;5093633;28;20574;-55
2023/03/28 12:55:48;;;;;;;1.25;1.00;;;17.10;49.40;;;;;;5093390;28;20310;-54
2023/03/28 12:58:28;;;;;;;1.52;0.80;;;17.00;49.40;;;;;;5073058;28;20214;-56
2023/03/28 13:01:20;;;;;;;1.40;0.70;;;17.00;49.30;;;;;;5073386;28;20207;-55
2023/03/28 13:04:00;;;;;;;1.92;0.88;;;17.00;49.40;;;;;;5073572;28;20219;-54
2023/03/28 13:06:42;;;;;;;1.45;0.88;;;17.00;49.30;;;;;;5072638;28;20198;-55
2023/03/28 13:09:33;;;;;;;1.48;0.80;;;17.00;49.40;;;;;;5072591;28;20253;-55
2023/03/28 13:12:08;;;;;;;1.25;0.73;;;17.00;49.40;;;;;;5072897;28;20218;-53
2023/03/28 13:14:43;;;;;;;1.55;1.02;;;17.00;49.30;;;;;;5073092;28;20194;-53
2023/03/28 13:17:23;;;;;;;2.28;1.05;;;16.90;49.40;;;;;;5072875;28;20206;-56
2023/03/28 13:19:55;;;;;;;1.33;0.70;;;16.90;49.30;;;;;;5079779;28;20226;-55
2023/03/28 13:22:33;;;;;;;1.00;0.70;;;16.90;49.30;;;;;;5090435;28;20969;-54
2023/03/28 13:25:25;;;;;;;2.35;0.70;;;16.90;49.30;;;;;;5093125;28;20245;-54
2023/03/28 13:27:56;;;;;;;2.13;1.13;;;16.90;49.30;;;;;;5067800;28;20202;-51